sensor_id;sensor_type;location;lat;lon;timestamp;P1;durP1;ratioP1;P2;durP2;ratioP2
55254;SDS011;41118;44.634;11.182;2023-02-15T00:01:19;50.17;;;25.83;;
55254;SDS011;41118;44.634;11.182;2023-02-15T00:03:47;51.65;;;23.27;;
55254;SDS011;41118;44.634;11.182;2023-02-15T00:06:13;62.47;;;27.02;;
55254;SDS011;41118;44.634;11.182;2023-02-15T00:08:40;48.03;;;24.90;;
55254;SDS011;41118;44.634;11.182;2023-02-15T00:11:10;51.50;;;26.20;;
55254;SDS011;41118;44.634;11.182;2023-02-15T00:13:36;52.10;;;25.50;;
55254;SDS011;41118;44.634;11.182;2023-02-15T00:16:07;58.33;;;23.38;;
55254;SDS011;41118;44.634;11.182;2023-02-15T00:18:34;50.13;;;24.80;;
55254;SDS011;41118;44.634;11.182;2023-02-15T00:21:03;54.40;;;21.95;;
55254;SDS011;41118;44.634;11.182;2023-02-15T00:23:30;49.30;;;23.38;;
55254;SDS011;41118;44.634;11.182;2023-02-15T00:26:09;58.60;;;23.98;;
55254;SDS011;41118;44.634;11.182;2023-02-15T00:28:35;53.13;;;23.60;;
55254;SDS011;41118;44.634;11.182;2023-02-15T00:31:11;63.15;;;26.67;;
55254;SDS011;41118;44.634;11.182;2023-02-15T00:33:37;58.90;;;24.67;;
55254;SDS011;41118;44.634;11.182;2023-02-15T00:36:04;57.63;;;25.40;;
55254;SDS011;41118;44.634;11.182;2023-02-15T00:38:31;50.63;;;22.45;;
55254;SDS011;41118;44.634;11.182;2023-02-15T00:40:58;61.30;;;25.13;;
55254;SDS011;41118;44.634;11.182;2023-02-15T00:43:25;50.75;;;24.55;;
55254;SDS011;41118;44.634;11.182;2023-02-15T00:45:51;47.90;;;21.67;;
55254;SDS011;41118;44.634;11.182;2023-02-15T00:48:18;52.65;;;22.90;;
55254;SDS011;41118;44.634;11.182;2023-02-15T00:50:45;49.30;;;22.05;;
55254;SDS011;41118;44.634;11.182;2023-02-15T00:53:11;57.15;;;24.83;;
55254;SDS011;41118;44.634;11.182;2023-02-15T00:55:37;54.67;;;21.05;;
55254;SDS011;41118;44.634;11.182;2023-02-15T00:58:05;51.75;;;24.13;;
55254;SDS011;41118;44.634;11.182;2023-02-15T01:00:31;53.05;;;22.40;;
55254;SDS011;41118;44.634;11.182;2023-02-15T01:02:57;53.92;;;23.60;;
55254;SDS011;41118;44.634;11.182;2023-02-15T01:05:23;56.85;;;23.67;;
55254;SDS011;41118;44.634;11.182;2023-02-15T01:07:49;47.45;;;20.20;;
55254;SDS011;41118;44.634;11.182;2023-02-15T01:10:16;55.40;;;21.05;;
55254;SDS011;41118;44.634;11.182;2023-02-15T01:12:42;52.60;;;20.65;;
55254;SDS011;41118;44.634;11.182;2023-02-15T01:15:08;44.58;;;20.95;;
55254;SDS011;41118;44.634;11.182;2023-02-15T01:17:34;46.33;;;21.08;;
55254;SDS011;41118;44.634;11.182;2023-02-15T01:20:00;46.17;;;19.67;;
55254;SDS011;41118;44.634;11.182;2023-02-15T01:22:27;45.40;;;20.85;;
55254;SDS011;41118;44.634;11.182;2023-02-15T01:24:53;43.60;;;19.08;;
55254;SDS011;41118;44.634;11.182;2023-02-15T01:27:19;48.25;;;21.00;;
55254;SDS011;41118;44.634;11.182;2023-02-15T01:29:45;39.70;;;19.98;;
55254;SDS011;41118;44.634;11.182;2023-02-15T01:32:12;41.63;;;17.88;;
55254;SDS011;41118;44.634;11.182;2023-02-15T01:34:38;44.65;;;18.20;;
55254;SDS011;41118;44.634;11.182;2023-02-15T01:37:05;42.33;;;18.33;;
55254;SDS011;41118;44.634;11.182;2023-02-15T01:39:31;46.80;;;20.75;;
55254;SDS011;41118;44.634;11.182;2023-02-15T01:41:57;45.63;;;20.67;;
55254;SDS011;41118;44.634;11.182;2023-02-15T01:47:12;43.30;;;18.83;;
55254;SDS011;41118;44.634;11.182;2023-02-15T01:49:39;53.90;;;19.60;;
55254;SDS011;41118;44.634;11.182;2023-02-15T01:52:06;46.22;;;17.90;;
55254;SDS011;41118;44.634;11.182;2023-02-15T01:54:34;44.15;;;18.73;;
55254;SDS011;41118;44.634;11.182;2023-02-15T01:57:03;47.40;;;19.05;;
55254;SDS011;41118;44.634;11.182;2023-02-15T01:59:31;47.03;;;18.83;;
55254;SDS011;41118;44.634;11.182;2023-02-15T02:01:57;36.78;;;15.38;;
55254;SDS011;41118;44.634;11.182;2023-02-15T02:04:32;37.88;;;17.63;;
55254;SDS011;41118;44.634;11.182;2023-02-15T02:07:01;41.70;;;16.23;;
55254;SDS011;41118;44.634;11.182;2023-02-15T02:09:28;46.80;;;19.00;;
55254;SDS011;41118;44.634;11.182;2023-02-15T02:11:55;43.90;;;17.90;;
55254;SDS011;41118;44.634;11.182;2023-02-15T02:14:21;45.22;;;19.40;;
55254;SDS011;41118;44.634;11.182;2023-02-15T02:17:10;39.90;;;17.50;;
55254;SDS011;41118;44.634;11.182;2023-02-15T02:19:58;40.00;;;18.95;;
55254;SDS011;41118;44.634;11.182;2023-02-15T02:25:12;38.20;;;17.23;;
55254;SDS011;41118;44.634;11.182;2023-02-15T02:28:27;35.05;;;15.15;;
55254;SDS011;41118;44.634;11.182;2023-02-15T02:40:55;37.92;;;16.60;;
55254;SDS011;41118;44.634;11.182;2023-02-15T02:45:54;37.33;;;16.85;;
55254;SDS011;41118;44.634;11.182;2023-02-15T02:48:24;38.67;;;16.17;;
55254;SDS011;41118;44.634;11.182;2023-02-15T02:50:51;36.53;;;17.98;;
55254;SDS011;41118;44.634;11.182;2023-02-15T02:53:18;35.25;;;14.43;;
55254;SDS011;41118;44.634;11.182;2023-02-15T03:00:38;41.15;;;16.52;;
55254;SDS011;41118;44.634;11.182;2023-02-15T03:03:12;33.70;;;14.88;;
55254;SDS011;41118;44.634;11.182;2023-02-15T03:05:41;34.00;;;16.10;;
55254;SDS011;41118;44.634;11.182;2023-02-15T03:08:09;35.70;;;15.73;;
55254;SDS011;41118;44.634;11.182;2023-02-15T03:10:37;34.28;;;14.55;;
55254;SDS011;41118;44.634;11.182;2023-02-15T03:13:04;41.17;;;16.65;;
55254;SDS011;41118;44.634;11.182;2023-02-15T03:15:31;37.33;;;15.02;;
55254;SDS011;41118;44.634;11.182;2023-02-15T03:18:20;40.20;;;16.38;;
55254;SDS011;41118;44.634;11.182;2023-02-15T03:20:48;38.72;;;15.45;;
55254;SDS011;41118;44.634;11.182;2023-02-15T03:23:17;37.13;;;15.10;;
55254;SDS011;41118;44.634;11.182;2023-02-15T03:25:46;31.40;;;13.18;;
55254;SDS011;41118;44.634;11.182;2023-02-15T03:28:22;33.45;;;13.02;;
55254;SDS011;41118;44.634;11.182;2023-02-15T03:30:51;36.85;;;15.23;;
55254;SDS011;41118;44.634;11.182;2023-02-15T03:33:18;34.95;;;14.68;;
55254;SDS011;41118;44.634;11.182;2023-02-15T03:35:50;27.90;;;12.85;;
55254;SDS011;41118;44.634;11.182;2023-02-15T03:38:20;32.85;;;12.57;;
55254;SDS011;41118;44.634;11.182;2023-02-15T03:40:48;27.83;;;12.68;;
55254;SDS011;41118;44.634;11.182;2023-02-15T03:43:50;25.55;;;8.80;;
55254;SDS011;41118;44.634;11.182;2023-02-15T03:46:26;27.08;;;10.20;;
55254;SDS011;41118;44.634;11.182;2023-02-15T03:48:54;22.95;;;8.35;;
55254;SDS011;41118;44.634;11.182;2023-02-15T03:51:25;23.75;;;8.80;;
55254;SDS011;41118;44.634;11.182;2023-02-15T03:54:03;28.55;;;11.50;;
55254;SDS011;41118;44.634;11.182;2023-02-15T03:56:29;29.42;;;13.48;;
55254;SDS011;41118;44.634;11.182;2023-02-15T03:58:55;31.27;;;12.98;;
55254;SDS011;41118;44.634;11.182;2023-02-15T04:01:44;27.60;;;9.10;;
55254;SDS011;41118;44.634;11.182;2023-02-15T04:04:26;21.95;;;9.23;;
55254;SDS011;41118;44.634;11.182;2023-02-15T04:06:54;23.30;;;10.45;;
55254;SDS011;41118;44.634;11.182;2023-02-15T04:09:20;27.73;;;10.70;;
55254;SDS011;41118;44.634;11.182;2023-02-15T04:12:05;22.17;;;10.43;;
55254;SDS011;41118;44.634;11.182;2023-02-15T04:14:31;24.85;;;10.38;;
55254;SDS011;41118;44.634;11.182;2023-02-15T04:19:41;30.85;;;13.32;;
55254;SDS011;41118;44.634;11.182;2023-02-15T04:22:26;27.20;;;10.45;;
55254;SDS011;41118;44.634;11.182;2023-02-15T04:27:41;20.95;;;9.23;;
55254;SDS011;41118;44.634;11.182;2023-02-15T04:30:08;28.90;;;12.82;;
55254;SDS011;41118;44.634;11.182;2023-02-15T04:32:34;21.90;;;11.05;;
55254;SDS011;41118;44.634;11.182;2023-02-15T04:35:00;26.70;;;9.48;;
55254;SDS011;41118;44.634;11.182;2023-02-15T04:37:26;29.60;;;9.93;;
55254;SDS011;41118;44.634;11.182;2023-02-15T04:39:52;19.25;;;7.75;;
55254;SDS011;41118;44.634;11.182;2023-02-15T04:42:18;27.50;;;10.43;;
55254;SDS011;41118;44.634;11.182;2023-02-15T04:44:44;33.47;;;12.85;;
55254;SDS011;41118;44.634;11.182;2023-02-15T04:47:10;26.80;;;11.05;;
55254;SDS011;41118;44.634;11.182;2023-02-15T04:49:37;28.60;;;11.93;;
55254;SDS011;41118;44.634;11.182;2023-02-15T04:52:03;28.90;;;10.27;;
55254;SDS011;41118;44.634;11.182;2023-02-15T04:54:30;25.23;;;11.60;;
55254;SDS011;41118;44.634;11.182;2023-02-15T04:56:56;26.83;;;11.30;;
55254;SDS011;41118;44.634;11.182;2023-02-15T04:59:22;27.40;;;8.90;;
55254;SDS011;41118;44.634;11.182;2023-02-15T05:01:48;29.45;;;11.52;;
55254;SDS011;41118;44.634;11.182;2023-02-15T05:04:14;24.98;;;9.52;;
55254;SDS011;41118;44.634;11.182;2023-02-15T05:06:40;25.90;;;9.63;;
55254;SDS011;41118;44.634;11.182;2023-02-15T05:09:06;22.40;;;10.65;;
55254;SDS011;41118;44.634;11.182;2023-02-15T05:11:32;27.30;;;10.25;;
55254;SDS011;41118;44.634;11.182;2023-02-15T05:13:58;27.10;;;11.95;;
55254;SDS011;41118;44.634;11.182;2023-02-15T05:16:24;27.23;;;10.00;;
55254;SDS011;41118;44.634;11.182;2023-02-15T05:18:52;30.10;;;9.30;;
55254;SDS011;41118;44.634;11.182;2023-02-15T05:21:18;20.15;;;9.32;;
55254;SDS011;41118;44.634;11.182;2023-02-15T05:23:44;23.17;;;9.63;;
55254;SDS011;41118;44.634;11.182;2023-02-15T05:26:11;25.98;;;8.82;;
55254;SDS011;41118;44.634;11.182;2023-02-15T05:28:56;29.55;;;7.88;;
55254;SDS011;41118;44.634;11.182;2023-02-15T05:31:22;23.67;;;8.63;;
55254;SDS011;41118;44.634;11.182;2023-02-15T05:33:48;23.80;;;9.30;;
55254;SDS011;41118;44.634;11.182;2023-02-15T05:36:15;18.65;;;9.13;;
55254;SDS011;41118;44.634;11.182;2023-02-15T05:38:41;25.52;;;9.48;;
55254;SDS011;41118;44.634;11.182;2023-02-15T05:41:07;23.17;;;7.63;;
55254;SDS011;41118;44.634;11.182;2023-02-15T05:43:34;22.63;;;9.05;;
55254;SDS011;41118;44.634;11.182;2023-02-15T05:46:01;21.23;;;7.63;;
55254;SDS011;41118;44.634;11.182;2023-02-15T05:48:27;21.17;;;9.02;;
55254;SDS011;41118;44.634;11.182;2023-02-15T05:51:00;29.20;;;9.88;;
55254;SDS011;41118;44.634;11.182;2023-02-15T05:53:27;23.08;;;8.38;;
55254;SDS011;41118;44.634;11.182;2023-02-15T05:55:53;21.60;;;8.45;;
55254;SDS011;41118;44.634;11.182;2023-02-15T05:58:23;19.70;;;6.50;;
55254;SDS011;41118;44.634;11.182;2023-02-15T06:00:50;20.95;;;8.77;;
55254;SDS011;41118;44.634;11.182;2023-02-15T06:03:16;18.48;;;4.85;;
55254;SDS011;41118;44.634;11.182;2023-02-15T06:05:42;24.50;;;8.27;;
55254;SDS011;41118;44.634;11.182;2023-02-15T06:08:08;20.55;;;8.32;;
55254;SDS011;41118;44.634;11.182;2023-02-15T06:10:34;17.67;;;6.38;;
55254;SDS011;41118;44.634;11.182;2023-02-15T06:13:00;20.35;;;8.10;;
55254;SDS011;41118;44.634;11.182;2023-02-15T06:15:26;15.68;;;7.07;;
55254;SDS011;41118;44.634;11.182;2023-02-15T06:17:53;23.70;;;7.03;;
55254;SDS011;41118;44.634;11.182;2023-02-15T06:20:19;27.23;;;8.82;;
55254;SDS011;41118;44.634;11.182;2023-02-15T06:22:45;27.13;;;7.97;;
55254;SDS011;41118;44.634;11.182;2023-02-15T06:25:11;26.92;;;7.90;;
55254;SDS011;41118;44.634;11.182;2023-02-15T06:27:37;19.95;;;7.75;;
55254;SDS011;41118;44.634;11.182;2023-02-15T06:30:07;14.48;;;5.78;;
55254;SDS011;41118;44.634;11.182;2023-02-15T06:32:34;17.17;;;6.50;;
55254;SDS011;41118;44.634;11.182;2023-02-15T06:35:00;15.57;;;7.82;;
55254;SDS011;41118;44.634;11.182;2023-02-15T06:37:26;29.48;;;8.35;;
55254;SDS011;41118;44.634;11.182;2023-02-15T06:39:52;27.13;;;8.02;;
55254;SDS011;41118;44.634;11.182;2023-02-15T06:42:18;26.35;;;7.07;;
55254;SDS011;41118;44.634;11.182;2023-02-15T06:44:45;19.42;;;8.05;;
55254;SDS011;41118;44.634;11.182;2023-02-15T06:47:11;23.30;;;6.45;;
55254;SDS011;41118;44.634;11.182;2023-02-15T06:49:37;18.38;;;7.78;;
55254;SDS011;41118;44.634;11.182;2023-02-15T06:52:03;23.45;;;7.50;;
55254;SDS011;41118;44.634;11.182;2023-02-15T06:54:30;29.83;;;6.75;;
55254;SDS011;41118;44.634;11.182;2023-02-15T06:56:56;24.13;;;9.50;;
55254;SDS011;41118;44.634;11.182;2023-02-15T06:59:22;19.15;;;6.63;;
55254;SDS011;41118;44.634;11.182;2023-02-15T07:01:48;23.05;;;8.65;;
55254;SDS011;41118;44.634;11.182;2023-02-15T07:04:14;29.40;;;9.52;;
55254;SDS011;41118;44.634;11.182;2023-02-15T07:06:40;20.77;;;7.65;;
55254;SDS011;41118;44.634;11.182;2023-02-15T07:09:06;25.52;;;7.68;;
55254;SDS011;41118;44.634;11.182;2023-02-15T07:11:32;26.60;;;8.18;;
55254;SDS011;41118;44.634;11.182;2023-02-15T07:14:17;24.42;;;8.35;;
55254;SDS011;41118;44.634;11.182;2023-02-15T07:16:44;15.15;;;6.10;;
55254;SDS011;41118;44.634;11.182;2023-02-15T07:19:10;23.65;;;5.82;;
55254;SDS011;41118;44.634;11.182;2023-02-15T07:21:36;22.83;;;7.75;;
55254;SDS011;41118;44.634;11.182;2023-02-15T07:24:02;23.77;;;7.97;;
55254;SDS011;41118;44.634;11.182;2023-02-15T07:26:30;15.32;;;5.68;;
55254;SDS011;41118;44.634;11.182;2023-02-15T07:28:57;19.50;;;4.53;;
55254;SDS011;41118;44.634;11.182;2023-02-15T07:31:23;22.40;;;5.38;;
55254;SDS011;41118;44.634;11.182;2023-02-15T07:33:49;21.38;;;5.88;;
55254;SDS011;41118;44.634;11.182;2023-02-15T07:36:16;20.10;;;2.17;;
55254;SDS011;41118;44.634;11.182;2023-02-15T07:38:42;13.68;;;5.35;;
55254;SDS011;41118;44.634;11.182;2023-02-15T07:41:10;16.00;;;4.75;;
55254;SDS011;41118;44.634;11.182;2023-02-15T07:43:37;15.73;;;4.68;;
55254;SDS011;41118;44.634;11.182;2023-02-15T07:46:05;17.50;;;4.13;;
55254;SDS011;41118;44.634;11.182;2023-02-15T07:48:32;14.85;;;3.95;;
55254;SDS011;41118;44.634;11.182;2023-02-15T07:51:02;15.35;;;3.63;;
55254;SDS011;41118;44.634;11.182;2023-02-15T07:53:29;11.80;;;2.95;;
55254;SDS011;41118;44.634;11.182;2023-02-15T07:55:59;12.55;;;3.50;;
55254;SDS011;41118;44.634;11.182;2023-02-15T07:58:25;16.77;;;3.15;;
55254;SDS011;41118;44.634;11.182;2023-02-15T08:01:11;17.33;;;3.38;;
55254;SDS011;41118;44.634;11.182;2023-02-15T08:03:37;12.65;;;3.38;;
55254;SDS011;41118;44.634;11.182;2023-02-15T08:06:04;10.20;;;2.13;;
55254;SDS011;41118;44.634;11.182;2023-02-15T08:08:30;14.18;;;1.45;;
55254;SDS011;41118;44.634;11.182;2023-02-15T08:13:47;13.00;;;1.73;;
55254;SDS011;41118;44.634;11.182;2023-02-15T08:18:55;11.35;;;1.10;;
55254;SDS011;41118;44.634;11.182;2023-02-15T08:21:21;5.05;;;1.17;;
55254;SDS011;41118;44.634;11.182;2023-02-15T08:23:48;7.80;;;1.33;;
55254;SDS011;41118;44.634;11.182;2023-02-15T08:26:14;7.13;;;1.13;;
55254;SDS011;41118;44.634;11.182;2023-02-15T08:28:41;11.07;;;0.85;;
55254;SDS011;41118;44.634;11.182;2023-02-15T08:31:09;5.43;;;1.38;;
55254;SDS011;41118;44.634;11.182;2023-02-15T08:33:36;13.80;;;1.48;;
55254;SDS011;41118;44.634;11.182;2023-02-15T08:36:03;10.48;;;1.50;;
55254;SDS011;41118;44.634;11.182;2023-02-15T08:38:30;13.10;;;1.85;;
55254;SDS011;41118;44.634;11.182;2023-02-15T08:40:57;9.57;;;2.35;;
55254;SDS011;41118;44.634;11.182;2023-02-15T08:43:23;11.02;;;2.20;;
55254;SDS011;41118;44.634;11.182;2023-02-15T08:45:49;11.90;;;1.58;;
55254;SDS011;41118;44.634;11.182;2023-02-15T08:48:15;8.38;;;2.50;;
55254;SDS011;41118;44.634;11.182;2023-02-15T08:50:41;4.53;;;1.17;;
55254;SDS011;41118;44.634;11.182;2023-02-15T08:53:07;14.05;;;2.15;;
55254;SDS011;41118;44.634;11.182;2023-02-15T08:55:33;8.75;;;1.85;;
55254;SDS011;41118;44.634;11.182;2023-02-15T08:58:00;15.10;;;3.40;;
55254;SDS011;41118;44.634;11.182;2023-02-15T09:00:26;11.73;;;3.85;;
55254;SDS011;41118;44.634;11.182;2023-02-15T09:02:53;12.95;;;4.32;;
55254;SDS011;41118;44.634;11.182;2023-02-15T09:05:20;22.90;;;3.75;;
55254;SDS011;41118;44.634;11.182;2023-02-15T09:07:46;16.02;;;3.65;;
55254;SDS011;41118;44.634;11.182;2023-02-15T09:10:12;16.58;;;3.28;;
55254;SDS011;41118;44.634;11.182;2023-02-15T09:12:38;17.67;;;5.45;;
55254;SDS011;41118;44.634;11.182;2023-02-15T09:15:04;16.48;;;3.75;;
55254;SDS011;41118;44.634;11.182;2023-02-15T09:17:30;21.23;;;4.55;;
55254;SDS011;41118;44.634;11.182;2023-02-15T09:19:56;18.17;;;3.72;;
55254;SDS011;41118;44.634;11.182;2023-02-15T09:22:22;16.95;;;3.30;;
55254;SDS011;41118;44.634;11.182;2023-02-15T09:24:48;19.90;;;5.43;;
55254;SDS011;41118;44.634;11.182;2023-02-15T09:27:14;16.40;;;4.15;;
55254;SDS011;41118;44.634;11.182;2023-02-15T09:29:40;14.63;;;3.50;;
55254;SDS011;41118;44.634;11.182;2023-02-15T09:32:07;20.40;;;3.85;;
55254;SDS011;41118;44.634;11.182;2023-02-15T09:34:33;18.52;;;3.60;;
55254;SDS011;41118;44.634;11.182;2023-02-15T09:36:59;24.13;;;6.25;;
55254;SDS011;41118;44.634;11.182;2023-02-15T09:39:25;13.70;;;3.72;;
55254;SDS011;41118;44.634;11.182;2023-02-15T10:26:31;27.13;;;8.63;;
55254;SDS011;41118;44.634;11.182;2023-02-15T10:29:03;27.92;;;6.63;;
55254;SDS011;41118;44.634;11.182;2023-02-15T10:31:45;29.65;;;8.77;;
55254;SDS011;41118;44.634;11.182;2023-02-15T10:34:56;19.33;;;5.72;;
55254;SDS011;41118;44.634;11.182;2023-02-15T10:40:12;24.70;;;8.75;;
55254;SDS011;41118;44.634;11.182;2023-02-15T10:47:32;35.53;;;11.93;;
55254;SDS011;41118;44.634;11.182;2023-02-15T10:52:48;34.10;;;10.55;;
55254;SDS011;41118;44.634;11.182;2023-02-15T10:58:11;32.05;;;9.60;;
55254;SDS011;41118;44.634;11.182;2023-02-15T11:00:45;36.00;;;11.25;;
55254;SDS011;41118;44.634;11.182;2023-02-15T11:08:27;23.67;;;9.40;;
55254;SDS011;41118;44.634;11.182;2023-02-15T11:10:59;30.13;;;9.40;;
55254;SDS011;41118;44.634;11.182;2023-02-15T11:13:27;28.98;;;10.75;;
55254;SDS011;41118;44.634;11.182;2023-02-15T11:16:41;31.67;;;10.45;;
55254;SDS011;41118;44.634;11.182;2023-02-15T11:18:58;42.15;;;11.68;;
55254;SDS011;41118;44.634;11.182;2023-02-15T11:21:26;33.08;;;11.05;;
55254;SDS011;41118;44.634;11.182;2023-02-15T11:23:54;51.70;;;17.63;;
55254;SDS011;41118;44.634;11.182;2023-02-15T11:26:28;47.38;;;16.02;;
55254;SDS011;41118;44.634;11.182;2023-02-15T11:29:44;32.67;;;10.85;;
55254;SDS011;41118;44.634;11.182;2023-02-15T11:31:46;33.92;;;11.43;;
55254;SDS011;41118;44.634;11.182;2023-02-15T11:34:26;49.50;;;13.32;;
55254;SDS011;41118;44.634;11.182;2023-02-15T11:36:55;35.50;;;10.95;;
55254;SDS011;41118;44.634;11.182;2023-02-15T11:39:24;41.10;;;11.07;;
55254;SDS011;41118;44.634;11.182;2023-02-15T11:41:57;31.33;;;10.77;;
55254;SDS011;41118;44.634;11.182;2023-02-15T11:44:32;36.50;;;13.25;;
55254;SDS011;41118;44.634;11.182;2023-02-15T11:47:00;30.40;;;9.60;;
55254;SDS011;41118;44.634;11.182;2023-02-15T11:49:31;32.08;;;11.52;;
55254;SDS011;41118;44.634;11.182;2023-02-15T11:51:58;44.67;;;14.88;;
55254;SDS011;41118;44.634;11.182;2023-02-15T11:54:26;44.40;;;14.55;;
55254;SDS011;41118;44.634;11.182;2023-02-15T11:56:55;37.67;;;11.77;;
55254;SDS011;41118;44.634;11.182;2023-02-15T11:59:29;34.65;;;11.55;;
55254;SDS011;41118;44.634;11.182;2023-02-15T12:01:57;29.27;;;10.80;;
55254;SDS011;41118;44.634;11.182;2023-02-15T12:12:19;47.50;;;17.08;;
55254;SDS011;41118;44.634;11.182;2023-02-15T12:15:16;50.90;;;19.83;;
55254;SDS011;41118;44.634;11.182;2023-02-15T12:20:02;47.50;;;17.70;;
55254;SDS011;41118;44.634;11.182;2023-02-15T12:22:29;56.17;;;20.50;;
55254;SDS011;41118;44.634;11.182;2023-02-15T12:24:58;52.63;;;19.88;;
55254;SDS011;41118;44.634;11.182;2023-02-15T12:27:26;39.38;;;13.93;;
55254;SDS011;41118;44.634;11.182;2023-02-15T12:29:59;64.10;;;26.60;;
55254;SDS011;41118;44.634;11.182;2023-02-15T12:32:31;65.22;;;26.50;;
55254;SDS011;41118;44.634;11.182;2023-02-15T12:35:00;50.78;;;22.52;;
55254;SDS011;41118;44.634;11.182;2023-02-15T12:37:28;50.15;;;18.17;;
55254;SDS011;41118;44.634;11.182;2023-02-15T12:40:00;52.53;;;22.65;;
55254;SDS011;41118;44.634;11.182;2023-02-15T12:42:28;50.47;;;20.90;;
55254;SDS011;41118;44.634;11.182;2023-02-15T12:45:01;46.65;;;20.98;;
55254;SDS011;41118;44.634;11.182;2023-02-15T12:47:28;46.50;;;18.15;;
55254;SDS011;41118;44.634;11.182;2023-02-15T12:53:05;57.50;;;21.67;;
55254;SDS011;41118;44.634;11.182;2023-02-15T12:55:31;56.90;;;26.05;;
55254;SDS011;41118;44.634;11.182;2023-02-15T13:00:42;40.58;;;17.48;;
55254;SDS011;41118;44.634;11.182;2023-02-15T13:03:15;64.88;;;29.55;;
55254;SDS011;41118;44.634;11.182;2023-02-15T13:05:43;70.75;;;35.30;;
55254;SDS011;41118;44.634;11.182;2023-02-15T13:10:59;54.40;;;23.45;;
55254;SDS011;41118;44.634;11.182;2023-02-15T13:13:30;95.03;;;40.70;;
55254;SDS011;41118;44.634;11.182;2023-02-15T13:15:58;88.95;;;43.55;;
55254;SDS011;41118;44.634;11.182;2023-02-15T13:21:13;89.03;;;41.13;;
55254;SDS011;41118;44.634;11.182;2023-02-15T13:23:42;56.05;;;25.63;;
55254;SDS011;41118;44.634;11.182;2023-02-15T13:26:11;55.58;;;23.25;;
55254;SDS011;41118;44.634;11.182;2023-02-15T13:28:47;57.65;;;22.77;;
55254;SDS011;41118;44.634;11.182;2023-02-15T13:31:15;60.80;;;21.77;;
55254;SDS011;41118;44.634;11.182;2023-02-15T13:33:45;60.88;;;27.15;;
55254;SDS011;41118;44.634;11.182;2023-02-15T13:36:14;53.88;;;23.27;;
55254;SDS011;41118;44.634;11.182;2023-02-15T13:41:12;56.28;;;25.80;;
55254;SDS011;41118;44.634;11.182;2023-02-15T13:49:16;87.55;;;40.35;;
55254;SDS011;41118;44.634;11.182;2023-02-15T13:59:41;59.78;;;27.38;;
55254;SDS011;41118;44.634;11.182;2023-02-15T14:05:13;53.03;;;27.48;;
55254;SDS011;41118;44.634;11.182;2023-02-15T14:07:53;62.70;;;27.67;;
55254;SDS011;41118;44.634;11.182;2023-02-15T14:10:29;64.82;;;25.42;;
55254;SDS011;41118;44.634;11.182;2023-02-15T14:15:49;55.00;;;24.83;;
55254;SDS011;41118;44.634;11.182;2023-02-15T14:21:39;58.40;;;23.55;;
55254;SDS011;41118;44.634;11.182;2023-02-15T14:24:24;47.30;;;20.88;;
55254;SDS011;41118;44.634;11.182;2023-02-15T14:26:56;60.22;;;25.83;;
55254;SDS011;41118;44.634;11.182;2023-02-15T14:31:56;55.70;;;22.85;;
55254;SDS011;41118;44.634;11.182;2023-02-15T14:37:02;53.85;;;22.27;;
55254;SDS011;41118;44.634;11.182;2023-02-15T14:47:38;56.45;;;23.63;;
55254;SDS011;41118;44.634;11.182;2023-02-15T14:50:35;50.80;;;22.25;;
55254;SDS011;41118;44.634;11.182;2023-02-15T14:53:15;61.55;;;23.13;;
55254;SDS011;41118;44.634;11.182;2023-02-15T14:55:42;54.10;;;20.83;;
55254;SDS011;41118;44.634;11.182;2023-02-15T14:58:11;63.08;;;22.98;;
55254;SDS011;41118;44.634;11.182;2023-02-15T15:01:03;53.28;;;24.88;;
55254;SDS011;41118;44.634;11.182;2023-02-15T15:05:56;53.40;;;21.48;;
55254;SDS011;41118;44.634;11.182;2023-02-15T15:08:37;52.38;;;22.23;;
55254;SDS011;41118;44.634;11.182;2023-02-15T15:13:53;52.72;;;22.88;;
55254;SDS011;41118;44.634;11.182;2023-02-15T15:19:01;41.45;;;18.25;;
55254;SDS011;41118;44.634;11.182;2023-02-15T15:29:41;51.15;;;18.30;;
55254;SDS011;41118;44.634;11.182;2023-02-15T15:32:08;46.33;;;15.70;;
55254;SDS011;41118;44.634;11.182;2023-02-15T15:42:32;50.38;;;17.80;;
55254;SDS011;41118;44.634;11.182;2023-02-15T15:50:23;51.45;;;18.58;;
55254;SDS011;41118;44.634;11.182;2023-02-15T15:52:51;53.75;;;18.67;;
55254;SDS011;41118;44.634;11.182;2023-02-15T15:55:20;44.33;;;16.08;;
55254;SDS011;41118;44.634;11.182;2023-02-15T15:57:49;45.80;;;17.52;;
55254;SDS011;41118;44.634;11.182;2023-02-15T16:03:03;51.10;;;17.55;;
55254;SDS011;41118;44.634;11.182;2023-02-15T16:05:36;49.22;;;19.10;;
55254;SDS011;41118;44.634;11.182;2023-02-15T16:08:03;52.07;;;18.23;;
55254;SDS011;41118;44.634;11.182;2023-02-15T16:10:29;49.35;;;16.90;;
55254;SDS011;41118;44.634;11.182;2023-02-15T16:12:59;45.67;;;15.52;;
55254;SDS011;41118;44.634;11.182;2023-02-15T16:15:45;46.15;;;18.35;;
55254;SDS011;41118;44.634;11.182;2023-02-15T16:18:15;48.15;;;18.10;;
55254;SDS011;41118;44.634;11.182;2023-02-15T16:20:42;53.92;;;22.42;;
55254;SDS011;41118;44.634;11.182;2023-02-15T16:28:25;47.30;;;18.77;;
55254;SDS011;41118;44.634;11.182;2023-02-15T16:30:58;42.17;;;16.02;;
55254;SDS011;41118;44.634;11.182;2023-02-15T16:33:36;40.42;;;14.70;;
55254;SDS011;41118;44.634;11.182;2023-02-15T16:36:04;41.58;;;17.27;;
55254;SDS011;41118;44.634;11.182;2023-02-15T16:41:11;49.30;;;20.52;;
55254;SDS011;41118;44.634;11.182;2023-02-15T16:43:39;48.17;;;18.65;;
55254;SDS011;41118;44.634;11.182;2023-02-15T16:46:08;46.38;;;16.50;;
55254;SDS011;41118;44.634;11.182;2023-02-15T16:48:38;48.20;;;16.45;;
55254;SDS011;41118;44.634;11.182;2023-02-15T16:51:05;47.17;;;17.67;;
55254;SDS011;41118;44.634;11.182;2023-02-15T16:53:32;41.08;;;17.42;;
55254;SDS011;41118;44.634;11.182;2023-02-15T16:55:59;42.90;;;18.67;;
55254;SDS011;41118;44.634;11.182;2023-02-15T16:58:29;45.05;;;18.52;;
55254;SDS011;41118;44.634;11.182;2023-02-15T17:00:57;43.97;;;15.65;;
55254;SDS011;41118;44.634;11.182;2023-02-15T17:03:24;38.97;;;14.20;;
55254;SDS011;41118;44.634;11.182;2023-02-15T17:05:55;51.58;;;17.95;;
55254;SDS011;41118;44.634;11.182;2023-02-15T17:08:31;44.47;;;16.25;;
55254;SDS011;41118;44.634;11.182;2023-02-15T17:13:27;42.85;;;20.40;;
55254;SDS011;41118;44.634;11.182;2023-02-15T17:18:30;44.38;;;16.50;;
55254;SDS011;41118;44.634;11.182;2023-02-15T17:20:58;42.45;;;15.73;;
55254;SDS011;41118;44.634;11.182;2023-02-15T17:23:32;44.95;;;16.63;;
55254;SDS011;41118;44.634;11.182;2023-02-15T17:28:25;38.53;;;15.60;;
55254;SDS011;41118;44.634;11.182;2023-02-15T17:30:53;51.60;;;19.30;;
55254;SDS011;41118;44.634;11.182;2023-02-15T17:33:34;37.58;;;13.73;;
55254;SDS011;41118;44.634;11.182;2023-02-15T17:36:01;47.97;;;17.85;;
55254;SDS011;41118;44.634;11.182;2023-02-15T17:38:27;38.83;;;14.93;;
55254;SDS011;41118;44.634;11.182;2023-02-15T17:40:54;49.17;;;18.23;;
55254;SDS011;41118;44.634;11.182;2023-02-15T17:43:21;43.03;;;16.88;;
55254;SDS011;41118;44.634;11.182;2023-02-15T17:45:48;40.63;;;14.38;;
55254;SDS011;41118;44.634;11.182;2023-02-15T17:48:33;45.95;;;18.77;;
55254;SDS011;41118;44.634;11.182;2023-02-15T17:51:00;51.08;;;19.80;;